Nearby METAR Reports

 

KCOS - Colorado Springs, Colorado, USA
Distance from station: S 6mi, 9km
Updated: 09/25/2020 11:54pm
Mostly cloudy
Mostly cloudy
 Wind from NW
Wind: NW 9 mph , 15 km/h
Temperature: 73°F , 23°C
Dew Point: 23°F , -5°C
Humidity: 15%
Barometer: 30.02 inHg , 1016.6 hPa
Clouds: Mostly cloudy
Visibility: 10 miles , 16 km
Cloud details: Mostly cloudy 25000 ft
2020/09/26 05:54 KCOS 260554Z 31008KT 10SM BKN250 23/M05 A3002 RMK AO2 SLP054 T02331050 10306 20200 58005
KAFF - Usaf Academy/Cos, Colorado, USA
Distance from station: NW 7mi, 12km
Updated: 09/25/2020 11:58pm
Clear
Clear
 Wind from W
Wind: W 13 mph , 20 km/h
Temperature: 72°F , 22°C
Dew Point: 18°F , -8°C
Humidity: 13%
Barometer: 30.03 inHg , 1016.9 hPa
Clouds: Clear
Visibility: 10 miles , 16 km
2020/09/26 05:58 KAFF 260558Z AUTO 28011KT 10SM CLR 22/M08 A3003 RMK AO2 SLP058 T02221076 10291 20222 58003
 
KFLY - Co Spngs Meadow, Colorado, USA
Distance from station: ENE 8mi, 13km
Updated: 09/26/2020 12:15am
Clear
Clear
 Wind from NW
Wind: NW 13 mph , 20 km/h
Temperature: 70°F , 21°C
Dew Point: 16°F , -9°C
Humidity: 12%
Barometer: 30.07 inHg , 1018.3 hPa
Clouds: Clear
Visibility: 10 miles , 16 km
2020/09/26 06:15 KFLY 260615Z AUTO 31011KT 10SM CLR 21/M09 A3007 RMK AO2 T02061089
KFCS - Fort Carson, Colorado, USA
Distance from station: S 17mi, 27km
Updated: 09/25/2020 10:58pm
NOT Current
Clear
Clear
 Wind from SW
Wind: SW 7 mph , 11 km/h
Temperature: 73°F , 23°C
Dew Point: 16°F , -9°C
Humidity: 11%
Barometer: 29.98 inHg , 1015.2 hPa
Clouds: Clear
Visibility: 10 miles , 16 km
2020/09/26 04:58 KFCS 260458Z AUTO 22006KT 10SM CLR 23/M09 A2998 RMK AO2 SLP078 T02311090 $
 
KMNH - Monument/Elbert, Colorado, USA
Distance from station: N 22mi, 35km
Updated: 09/26/2020 12:15am
Clear
Clear
 Wind from SW
Wind: SW 9 mph , 15 km/h
Temperature: 61°F , 16°C
Dew Point: 23°F , -5°C
Humidity: 23%
Barometer: 30.09 inHg , 1019 hPa
Clouds: Clear
Visibility: 10 miles , 16 km
2020/09/26 06:15 KMNH 260615Z AUTO 22008KT 10SM CLR 16/M05 A3009 RMK AO2
K1V6 - Canon City, Colorado, USA
Distance from station: SSW 39mi, 62km
Updated: 09/26/2020 12:10am
Clear
Clear
 Wind from W
Wind: W 8 mph , 13 km/h
Temperature: 68°F , 20°C
Dew Point: 28°F , -2°C
Humidity: 23%
Barometer: 29.98 inHg , 1015.2 hPa
Clouds: Clear
Visibility: 10 miles , 16 km
2020/09/26 06:10 K1V6 260610Z AUTO 26007KT 10SM CLR 20/M02 A2998 RMK AO2
 
KPUB - Pueblo, Colorado, USA
Distance from station: SSE 44mi, 71km
Updated: 09/25/2020 11:53pm
Clear
Clear
 Wind from W
Wind: W 7 mph , 11 km/h
Temperature: 64°F , 18°C
Dew Point: 36°F , 2°C
Humidity: 34%
Barometer: 29.91 inHg , 1012.9 hPa
Clouds: Clear
Visibility: 10 miles , 16 km
2020/09/26 05:53 KPUB 260553Z AUTO 26006KT 10SM CLR 18/02 A2991 RMK AO2 SLP054 T01830017 10339 20172 50000
KAPA - Denver/Arapahoe, Colorado, USA
Distance from station: N 47mi, 75km
Updated: 09/25/2020 11:53pm
Mostly cloudy
Mostly cloudy
 Wind from SW
Wind: SW 8 mph , 13 km/h
Temperature: 70°F , 21°C
Dew Point: 34°F , 1°C
Humidity: 27%
Barometer: 29.98 inHg , 1015.2 hPa
Clouds: Mostly cloudy
Visibility: 10 miles , 16 km
Cloud details: Mostly cloudy 14000 ft
Mostly cloudy 22000 ft
2020/09/26 05:53 KAPA 260553Z 22007KT 10SM BKN140 BKN220 21/01 A2998 RMK AO2 SLP067 T02110006 10289 20178 58003